createdAt,value
2023-03-20T00:02:07.762Z,-0.81
2023-03-20T00:04:34.715Z,-0.28
2023-03-20T00:07:01.712Z,-0.55
2023-03-20T00:09:28.457Z,-0.53
2023-03-20T00:11:56.501Z,-0.44
2023-03-20T00:14:24.871Z,-1.47
2023-03-20T00:16:52.634Z,0.05
2023-03-20T00:19:29.335Z,-0.48
2023-03-20T00:21:57.151Z,0.79
2023-03-20T00:24:24.918Z,0.57
2023-03-20T00:26:53.634Z,0.55
2023-03-20T00:29:26.748Z,0.96
2023-03-20T00:31:54.834Z,0.56
2023-03-20T00:34:24.282Z,0.34
2023-03-20T00:36:52.393Z,0.36
2023-03-20T00:39:20.011Z,2.58
2023-03-20T00:41:57.290Z,3.52
2023-03-20T00:44:42.532Z,2.96
2023-03-20T00:47:18.709Z,3.64
2023-03-20T00:49:47.835Z,1.23
2023-03-20T00:52:16.061Z,0.78
2023-03-20T00:54:43.462Z,0.57
2023-03-20T00:57:13.204Z,0.12
2023-03-20T00:59:47.459Z,-0.09
2023-03-20T01:02:14.916Z,0.11
2023-03-20T01:04:43.112Z,0.39
2023-03-20T01:07:14.789Z,-0.32
2023-03-20T01:09:42.125Z,0.26
2023-03-20T01:12:12.323Z,0.80
2023-03-20T01:14:42.277Z,0.52
2023-03-20T01:17:19.656Z,2.58
2023-03-20T01:19:47.734Z,4.14
2023-03-20T01:22:14.551Z,3.97
2023-03-20T01:24:41.476Z,2.71
2023-03-20T01:27:19.927Z,4.45
2023-03-20T01:29:47.021Z,3.27
2023-03-20T01:32:16.928Z,2.99
2023-03-20T01:34:47.959Z,4.06
2023-03-20T01:37:22.927Z,3.86
2023-03-20T01:39:50.784Z,4.45
2023-03-20T01:42:18.303Z,2.45
2023-03-20T01:44:45.720Z,2.71
2023-03-20T01:47:19.162Z,3.74
2023-03-20T01:50:16.905Z,3.70
2023-03-20T01:52:44.270Z,4.40
2023-03-20T01:55:12.557Z,3.07
2023-03-20T01:57:39.806Z,2.77
2023-03-20T02:00:10.793Z,4.67
2023-03-20T02:02:47.218Z,5.14
2023-03-20T02:05:31.052Z,4.87
2023-03-20T02:08:22.814Z,4.61
2023-03-20T02:10:50.829Z,5.15
2023-03-20T02:13:31.370Z,5.29
2023-03-20T02:16:12.852Z,5.39
2023-03-20T02:19:15.312Z,3.72
2023-03-20T02:22:10.502Z,3.71
2023-03-20T02:25:02.415Z,4.08
2023-03-20T02:27:57.082Z,4.27
2023-03-20T02:30:48.383Z,4.40
2023-03-20T02:33:27.882Z,4.34
2023-03-20T02:36:22.259Z,5.15
2023-03-20T02:38:54.623Z,2.98
2023-03-20T02:41:46.578Z,4.08
2023-03-20T02:44:19.829Z,4.21
2023-03-20T02:47:02.775Z,3.38
2023-03-20T02:49:51.321Z,2.99
2023-03-20T02:52:54.765Z,3.93
2023-03-20T02:55:40.451Z,3.71
2023-03-20T02:58:11.488Z,3.27
2023-03-20T03:01:11.400Z,2.62
2023-03-20T03:03:46.537Z,3.17
2023-03-20T03:06:18.973Z,4.38
2023-03-20T03:08:52.650Z,3.81
2023-03-20T03:11:19.373Z,4.34
2023-03-20T03:13:50.909Z,2.54
2023-03-20T03:16:24.245Z,3.87
2023-03-20T03:19:23.158Z,3.40
2023-03-20T03:21:50.746Z,2.88
2023-03-20T03:24:42.466Z,1.51
2023-03-20T03:27:27.708Z,3.90
2023-03-20T03:30:07.744Z,4.16
2023-03-20T03:32:37.658Z,3.28
2023-03-20T03:35:07.030Z,2.97
2023-03-20T03:38:00.454Z,5.27
2023-03-20T03:40:40.340Z,3.91
2023-03-20T03:43:14.546Z,3.54
2023-03-20T03:45:52.837Z,4.87
2023-03-20T03:48:23.285Z,0.35
2023-03-20T03:50:57.733Z,1.57
2023-03-20T03:53:32.018Z,1.51
2023-03-20T03:56:03.546Z,0.75
2023-03-20T03:58:35.398Z,1.83
2023-03-20T04:01:04.425Z,2.22
2023-03-20T04:03:35.439Z,1.76
2023-03-20T04:06:04.726Z,0.73
2023-03-20T04:08:31.475Z,1.32
2023-03-20T04:11:00.049Z,1.25
2023-03-20T04:13:27.153Z,1.54
2023-03-20T04:15:54.587Z,1.06
2023-03-20T04:18:21.436Z,1.78
2023-03-20T04:20:48.820Z,0.84
2023-03-20T04:23:16.659Z,1.89
2023-03-20T04:25:43.979Z,0.91
2023-03-20T04:28:12.068Z,2.02
2023-03-20T04:30:57.077Z,2.27
2023-03-20T04:33:38.323Z,0.87
2023-03-20T04:36:23.745Z,1.03
2023-03-20T04:38:52.401Z,0.83
2023-03-20T04:41:21.221Z,1.51
2023-03-20T04:43:52.389Z,1.57
2023-03-20T04:46:19.165Z,2.07
2023-03-20T04:48:46.254Z,1.71
2023-03-20T04:51:13.282Z,1.80
2023-03-20T04:53:45.530Z,1.35
2023-03-20T04:56:12.615Z,1.62
2023-03-20T04:58:39.836Z,1.83
2023-03-20T05:01:07.074Z,2.25
2023-03-20T05:03:34.110Z,1.52
2023-03-20T05:06:01.130Z,1.31
2023-03-20T05:08:28.613Z,1.21
2023-03-20T05:10:59.710Z,2.72
2023-03-20T05:14:05.253Z,0.94
2023-03-20T05:17:01.299Z,1.60
2023-03-20T05:19:38.972Z,2.12
2023-03-20T05:22:17.839Z,2.51
2023-03-20T05:24:50.321Z,0.76
2023-03-20T05:27:37.321Z,1.95
2023-03-20T05:30:28.460Z,2.75
2023-03-20T05:32:55.438Z,1.67
2023-03-20T05:35:28.811Z,3.31
2023-03-20T05:38:16.065Z,3.59
2023-03-20T05:40:48.333Z,4.40
2023-03-20T05:43:41.108Z,4.33
2023-03-20T05:46:33.879Z,3.33
2023-03-20T05:49:20.895Z,2.25
2023-03-20T05:52:12.780Z,3.37
2023-03-20T05:55:04.914Z,3.56
2023-03-20T05:57:47.497Z,3.38
2023-03-20T06:00:40.808Z,2.66
2023-03-20T06:03:33.886Z,1.76
2023-03-20T06:06:08.155Z,1.77
2023-03-20T06:08:36.649Z,2.76
2023-03-20T06:11:04.332Z,2.32
2023-03-20T06:13:33.454Z,2.25
2023-03-20T06:16:01.567Z,2.15
2023-03-20T06:18:29.151Z,2.52
2023-03-20T06:20:58.012Z,2.19
2023-03-20T06:23:28.126Z,1.29
2023-03-20T06:25:54.994Z,-0.17
2023-03-20T06:28:22.706Z,1.15
2023-03-20T06:30:57.553Z,1.00
2023-03-20T06:33:24.796Z,0.73
2023-03-20T06:36:00.278Z,1.03
2023-03-20T06:38:30.248Z,1.62
2023-03-20T06:40:58.310Z,1.18
2023-03-20T06:43:25.285Z,3.51
2023-03-20T06:45:54.954Z,2.67
2023-03-20T06:48:25.097Z,2.74
2023-03-20T06:50:53.120Z,1.62
2023-03-20T06:53:22.722Z,2.34
2023-03-20T06:56:03.585Z,1.94
2023-03-20T06:58:31.325Z,2.67
2023-03-20T07:00:58.021Z,2.53
2023-03-20T07:03:25.310Z,1.22
2023-03-20T07:05:53.166Z,1.93
2023-03-20T07:08:21.875Z,1.75
2023-03-20T07:10:49.588Z,2.17
2023-03-20T07:13:16.665Z,3.90
2023-03-20T07:15:57.450Z,3.04
2023-03-20T07:18:30.857Z,1.30
2023-03-20T07:21:03.866Z,2.10
2023-03-20T07:23:31.836Z,1.81
2023-03-20T07:26:00.098Z,1.87
2023-03-20T07:28:27.180Z,4.21
2023-03-20T07:31:06.983Z,3.30
2023-03-20T07:33:33.905Z,3.53
2023-03-20T07:36:01.483Z,3.34
2023-03-20T07:38:28.755Z,2.09
2023-03-20T07:41:06.011Z,1.68
2023-03-20T07:43:34.527Z,4.42
2023-03-20T07:46:09.024Z,3.23
2023-03-20T07:48:38.114Z,1.98
2023-03-20T07:51:05.396Z,1.71
2023-03-20T07:53:32.377Z,1.74
2023-03-20T07:55:59.301Z,2.40
2023-03-20T07:58:26.668Z,1.98
2023-03-20T08:00:53.381Z,1.65
2023-03-20T08:03:20.479Z,2.75
2023-03-20T08:05:48.006Z,2.86
2023-03-20T08:08:15.495Z,2.30
2023-03-20T08:10:42.864Z,2.96
2023-03-20T08:13:09.685Z,2.51
2023-03-20T08:15:36.662Z,3.09
2023-03-20T08:18:04.001Z,2.91
2023-03-20T08:20:31.813Z,3.00
2023-03-20T08:22:58.646Z,3.07
2023-03-20T08:25:25.608Z,1.67
2023-03-20T08:27:52.342Z,2.87
2023-03-20T08:30:19.170Z,2.64
2023-03-20T08:32:46.678Z,3.26
2023-03-20T08:35:26.029Z,3.01
2023-03-20T08:37:58.909Z,2.04
2023-03-20T08:40:26.111Z,1.89
2023-03-20T08:42:52.830Z,2.47
2023-03-20T08:45:19.554Z,3.22
2023-03-20T08:47:49.850Z,2.18
2023-03-20T08:50:17.136Z,3.05
2023-03-20T08:52:44.755Z,1.76
2023-03-20T08:55:12.135Z,2.06
2023-03-20T08:57:39.196Z,2.46
2023-03-20T09:00:07.430Z,3.03
2023-03-20T09:02:34.516Z,3.07
2023-03-20T09:05:01.996Z,3.33
2023-03-20T09:07:28.722Z,2.01
2023-03-20T09:09:55.769Z,3.45
2023-03-20T09:12:22.877Z,3.57
2023-03-20T09:14:49.621Z,4.19
2023-03-20T09:17:16.470Z,2.86
2023-03-20T09:19:45.098Z,3.46
2023-03-20T09:22:18.235Z,3.12
2023-03-20T09:24:46.283Z,3.49
2023-03-20T09:27:17.260Z,4.29
2023-03-20T09:29:44.210Z,4.26
2023-03-20T09:32:15.267Z,3.76
2023-03-20T09:34:42.535Z,3.99
2023-03-20T09:37:09.449Z,4.21
2023-03-20T09:39:36.411Z,4.50
2023-03-20T09:42:20.467Z,4.22
2023-03-20T09:45:03.464Z,3.88
2023-03-20T09:48:03.592Z,3.49
2023-03-20T09:50:45.394Z,5.21
2023-03-20T09:53:25.616Z,4.97
2023-03-20T09:55:54.350Z,4.95
2023-03-20T09:58:26.788Z,4.26
2023-03-20T10:00:58.665Z,4.36
2023-03-20T10:03:36.875Z,4.54
2023-03-20T10:06:06.961Z,4.06
2023-03-20T10:08:36.996Z,4.20
2023-03-20T10:11:07.408Z,4.45
2023-03-20T10:13:37.256Z,3.81
2023-03-20T10:16:16.772Z,2.95
2023-03-20T10:18:57.152Z,3.83
2023-03-20T10:21:37.344Z,3.99
2023-03-20T10:24:07.107Z,3.38
2023-03-20T10:26:36.683Z,3.96
2023-03-20T10:29:20.791Z,2.74
2023-03-20T10:31:53.060Z,3.92
2023-03-20T10:34:28.805Z,3.50
2023-03-20T10:37:02.070Z,4.39
2023-03-20T10:39:50.503Z,4.52
2023-03-20T10:42:23.788Z,5.26
2023-03-20T10:44:57.407Z,5.15
2023-03-20T10:47:29.103Z,4.88
2023-03-20T10:50:01.136Z,5.30
2023-03-20T10:52:38.240Z,4.66
2023-03-20T10:55:16.008Z,5.30
2023-03-20T10:57:49.148Z,3.84
2023-03-20T11:00:21.412Z,3.99
2023-03-20T11:02:49.068Z,4.33
2023-03-20T11:05:37.000Z,3.87
2023-03-20T11:08:07.754Z,4.08
2023-03-20T11:10:37.288Z,3.41
2023-03-20T11:13:39.179Z,4.19
2023-03-20T11:16:11.434Z,4.79
2023-03-20T11:18:40.896Z,5.82
2023-03-20T11:21:17.479Z,6.93
2023-03-20T11:23:44.516Z,6.13
2023-03-20T11:26:17.527Z,6.93
2023-03-20T11:28:57.889Z,6.14
2023-03-20T11:31:33.715Z,5.65
2023-03-20T11:34:10.641Z,6.36
2023-03-20T11:36:40.495Z,5.92
2023-03-20T11:39:07.266Z,4.83
2023-03-20T11:41:34.789Z,4.89
2023-03-20T11:44:01.971Z,3.99
2023-03-20T11:46:29.318Z,5.09
2023-03-20T11:49:06.018Z,4.08
2023-03-20T11:51:35.844Z,4.87
2023-03-20T11:54:07.186Z,5.62
2023-03-20T11:56:35.658Z,6.15
2023-03-20T11:59:18.220Z,5.44
2023-03-20T12:01:48.999Z,4.05
2023-03-20T12:04:28.331Z,5.75
2023-03-20T12:07:24.346Z,5.89
2023-03-20T12:10:00.003Z,5.86
2023-03-20T12:12:29.381Z,5.14
2023-03-20T12:15:11.131Z,6.03
2023-03-20T12:17:44.237Z,5.74
2023-03-20T12:20:37.045Z,5.89
2023-03-20T12:23:31.333Z,6.36
2023-03-20T12:26:09.470Z,5.64
2023-03-20T12:28:48.258Z,6.27
2023-03-20T12:31:21.138Z,5.96
2023-03-20T12:34:12.390Z,5.38
2023-03-20T12:36:43.786Z,6.01
2023-03-20T12:39:18.552Z,5.77
2023-03-20T12:42:05.195Z,5.25
2023-03-20T12:44:49.740Z,5.39
2023-03-20T12:48:01.369Z,4.51
2023-03-20T12:50:41.995Z,4.00
2023-03-20T12:53:33.593Z,5.01
2023-03-20T12:56:06.316Z,5.27
2023-03-20T12:58:44.291Z,4.98
2023-03-20T13:01:30.804Z,4.01
2023-03-20T13:04:28.889Z,5.13
2023-03-20T13:06:59.220Z,4.77
2023-03-20T13:09:52.207Z,5.80
2023-03-20T13:13:01.820Z,4.85
2023-03-20T13:15:50.808Z,5.91
2023-03-20T13:18:27.978Z,5.76
2023-03-20T13:20:56.769Z,5.13
2023-03-20T13:23:33.866Z,3.49
2023-03-20T13:26:03.812Z,2.06
2023-03-20T13:28:44.574Z,5.06
2023-03-20T13:31:51.032Z,4.09
2023-03-20T13:34:55.010Z,5.22
2023-03-20T13:37:44.316Z,5.77
2023-03-20T13:40:24.737Z,3.88
2023-03-20T13:43:13.424Z,4.83
2023-03-20T13:45:42.386Z,4.90
2023-03-20T13:48:41.824Z,6.69
2023-03-20T13:51:26.941Z,6.36
2023-03-20T13:54:16.115Z,6.74
2023-03-20T13:56:49.337Z,6.79
2023-03-20T13:59:31.273Z,7.09
2023-03-20T14:02:18.148Z,6.07
2023-03-20T14:04:47.829Z,6.59
2023-03-20T14:07:36.357Z,6.45
2023-03-20T14:10:21.752Z,5.65
2023-03-20T14:12:51.325Z,5.78
2023-03-20T14:15:20.520Z,6.17
2023-03-20T14:17:49.401Z,5.82
2023-03-20T14:20:38.331Z,5.44
2023-03-20T14:23:07.326Z,5.33
2023-03-20T14:25:40.658Z,6.31
2023-03-20T14:28:19.571Z,6.74
2023-03-20T14:30:51.506Z,7.86
2023-03-20T14:33:20.026Z,7.81
2023-03-20T14:36:20.938Z,8.29
2023-03-20T14:38:58.336Z,7.51
2023-03-20T14:41:39.629Z,8.66
2023-03-20T14:44:09.205Z,8.46
2023-03-20T14:47:21.647Z,9.36
2023-03-20T14:49:48.672Z,6.30
2023-03-20T14:52:42.423Z,7.01
2023-03-20T14:55:18.331Z,6.08
2023-03-20T14:57:55.999Z,6.02
2023-03-20T15:00:30.258Z,6.38
2023-03-20T15:03:08.226Z,6.55
2023-03-20T15:05:38.517Z,7.20
2023-03-20T15:08:10.077Z,9.40
2023-03-20T15:10:47.264Z,10.50
2023-03-20T15:13:15.962Z,8.24
2023-03-20T15:15:55.696Z,7.13
2023-03-20T15:18:24.972Z,8.20
2023-03-20T15:20:52.168Z,11.77
2023-03-20T15:23:19.146Z,10.87
2023-03-20T15:25:48.443Z,9.53
2023-03-20T15:28:21.171Z,8.53
2023-03-20T15:30:51.316Z,6.91
2023-03-20T15:33:26.879Z,8.41
2023-03-20T15:35:53.746Z,7.03
2023-03-20T15:38:21.856Z,7.79
2023-03-20T15:40:51.405Z,6.73
2023-03-20T15:43:22.368Z,6.84
2023-03-20T15:45:52.780Z,5.38
2023-03-20T15:48:22.431Z,5.87
2023-03-20T15:50:54.596Z,6.81
2023-03-20T15:53:29.834Z,5.03
2023-03-20T15:56:17.190Z,5.90
2023-03-20T15:58:46.835Z,5.49
2023-03-20T16:01:20.734Z,5.26
2023-03-20T16:03:48.795Z,4.77
2023-03-20T16:06:20.510Z,4.83
2023-03-20T16:09:01.324Z,5.27
2023-03-20T16:11:39.730Z,5.53
2023-03-20T16:14:12.344Z,5.67
2023-03-20T16:16:39.479Z,4.95
2023-03-20T16:19:07.799Z,4.82
2023-03-20T16:21:38.263Z,4.04
2023-03-20T16:24:09.347Z,5.34
2023-03-20T16:26:44.896Z,4.81
2023-03-20T16:29:14.935Z,5.24
2023-03-20T16:31:48.132Z,4.56
2023-03-20T16:34:23.603Z,5.32
2023-03-20T16:36:57.384Z,4.28
2023-03-20T16:39:28.736Z,3.98
2023-03-20T16:42:30.231Z,5.47
2023-03-20T16:44:58.893Z,5.37
2023-03-20T16:47:36.333Z,3.95
2023-03-20T16:50:09.175Z,4.80
2023-03-20T16:52:44.587Z,3.56
2023-03-20T16:55:22.575Z,4.78
2023-03-20T16:57:53.269Z,4.88
2023-03-20T17:00:30.083Z,4.40
2023-03-20T17:03:13.239Z,4.45
2023-03-20T17:05:49.264Z,3.29
2023-03-20T17:08:25.973Z,3.82
2023-03-20T17:10:57.137Z,2.99
2023-03-20T17:13:24.320Z,2.96
2023-03-20T17:15:51.499Z,3.76
2023-03-20T17:18:18.217Z,2.87
2023-03-20T17:20:44.922Z,3.00
2023-03-20T17:23:21.529Z,2.62
2023-03-20T17:25:50.428Z,2.29
2023-03-20T17:28:22.579Z,2.08
2023-03-20T17:30:51.771Z,1.92
2023-03-20T17:33:21.580Z,1.27
2023-03-20T17:35:48.953Z,0.91
2023-03-20T17:38:21.676Z,1.49
2023-03-20T17:40:50.510Z,0.84
2023-03-20T17:43:18.924Z,1.00
2023-03-20T17:45:47.591Z,0.92
2023-03-20T17:48:17.837Z,0.92
2023-03-20T17:50:46.105Z,0.85
2023-03-20T17:53:20.601Z,0.72
2023-03-20T17:55:47.485Z,1.23
2023-03-20T17:58:16.909Z,1.12
2023-03-20T18:00:44.479Z,1.00
2023-03-20T18:03:11.907Z,0.80
2023-03-20T18:05:39.682Z,1.46
2023-03-20T18:08:13.183Z,0.74
2023-03-20T18:10:40.727Z,1.46
2023-03-20T18:13:08.455Z,1.31
2023-03-20T18:15:35.968Z,1.67
2023-03-20T18:18:02.860Z,1.63
2023-03-20T18:20:32.395Z,2.56
2023-03-20T18:22:59.129Z,2.39
2023-03-20T18:25:26.116Z,2.33
2023-03-20T18:27:54.548Z,1.09
2023-03-20T18:30:27.448Z,1.76
2023-03-20T18:32:54.513Z,2.25
2023-03-20T18:35:21.974Z,0.96
2023-03-20T18:37:48.831Z,1.82
2023-03-20T18:40:31.610Z,2.51
2023-03-20T18:42:58.949Z,1.21
2023-03-20T18:45:27.627Z,1.68
2023-03-20T18:47:56.526Z,1.91
2023-03-20T18:50:24.562Z,1.32
2023-03-20T18:52:54.485Z,2.61
2023-03-20T18:55:23.501Z,3.00
2023-03-20T18:57:51.368Z,3.04
2023-03-20T19:00:21.536Z,3.44
2023-03-20T19:02:50.461Z,2.40
2023-03-20T19:05:19.016Z,2.98
2023-03-20T19:07:49.543Z,2.42
2023-03-20T19:10:49.932Z,2.38
2023-03-20T19:13:18.808Z,1.92
2023-03-20T19:15:45.947Z,1.64
2023-03-20T19:18:21.727Z,1.00
2023-03-20T19:20:50.663Z,2.12
2023-03-20T19:23:19.738Z,2.83
2023-03-20T19:25:49.602Z,2.61
2023-03-20T19:28:36.920Z,1.81
2023-03-20T19:31:05.857Z,1.93
2023-03-20T19:33:33.399Z,2.72
2023-03-20T19:36:03.728Z,2.51
2023-03-20T19:38:33.910Z,2.20
2023-03-20T19:41:01.923Z,2.78
2023-03-20T19:43:29.333Z,2.45
2023-03-20T19:45:58.996Z,2.50
2023-03-20T19:48:49.666Z,2.03
2023-03-20T19:51:23.516Z,2.81
2023-03-20T19:53:51.132Z,1.95
2023-03-20T19:56:19.272Z,0.63
2023-03-20T19:58:46.225Z,1.42
2023-03-20T20:01:19.160Z,1.58
2023-03-20T20:03:46.760Z,2.40
2023-03-20T20:06:14.612Z,2.29
2023-03-20T20:08:48.310Z,2.04
2023-03-20T20:11:19.491Z,2.00
2023-03-20T20:16:35.964Z,2.16
2023-03-20T20:19:02.854Z,2.13
2023-03-20T20:24:16.586Z,0.44
2023-03-20T20:26:53.428Z,-0.05
2023-03-20T20:29:24.573Z,0.02
2023-03-20T20:31:51.622Z,0.09
2023-03-20T20:37:51.596Z,0.35
2023-03-20T20:39:53.764Z,0.19
2023-03-20T20:42:20.732Z,0.63
2023-03-20T20:44:47.667Z,0.80
2023-03-20T20:47:15.766Z,1.42
2023-03-20T20:49:42.761Z,1.58
2023-03-20T20:52:10.925Z,1.48
2023-03-20T20:54:37.816Z,0.09
2023-03-20T20:57:05.453Z,0.11
2023-03-20T20:59:32.212Z,-0.33
2023-03-20T21:01:59.241Z,-0.20
2023-03-20T21:04:26.212Z,0.24
2023-03-20T21:07:10.624Z,0.27
2023-03-20T21:09:38.966Z,1.19
2023-03-20T21:12:06.516Z,1.08
2023-03-20T21:14:33.625Z,0.97
2023-03-20T21:17:03.570Z,0.93
2023-03-20T21:19:33.296Z,0.77
2023-03-20T21:22:00.062Z,1.42
2023-03-20T21:24:33.124Z,0.97
2023-03-20T21:27:02.124Z,1.10
2023-03-20T21:29:28.897Z,0.35
2023-03-20T21:31:56.289Z,1.20
2023-03-20T21:34:23.113Z,0.39
2023-03-20T21:36:51.362Z,1.08
2023-03-20T21:39:18.694Z,1.26
2023-03-20T21:41:45.962Z,0.35
2023-03-20T21:44:17.585Z,0.25
2023-03-20T21:47:39.723Z,0.30
2023-03-20T22:04:22.041Z,0.82
2023-03-20T22:12:43.503Z,0.66
2023-03-20T22:29:32.449Z,1.18
2023-03-20T22:32:40.187Z,1.40
2023-03-20T22:35:15.562Z,1.48
2023-03-20T22:45:38.474Z,-0.78
2023-03-20T22:48:12.282Z,-1.36
2023-03-20T22:50:40.826Z,1.73
2023-03-20T22:53:07.649Z,1.68
2023-03-20T22:55:34.751Z,1.96
2023-03-20T22:58:07.430Z,2.59
2023-03-20T23:00:36.591Z,1.99
2023-03-20T23:03:37.733Z,2.48
2023-03-20T23:05:54.018Z,2.25
2023-03-20T23:08:21.630Z,1.05
2023-03-20T23:10:50.280Z,0.09
2023-03-20T23:13:18.310Z,0.35
2023-03-20T23:15:46.772Z,1.48
2023-03-20T23:18:14.282Z,1.89
2023-03-20T23:20:41.615Z,1.83
2023-03-20T23:23:09.257Z,0.63
2023-03-20T23:25:39.788Z,1.04
2023-03-20T23:28:11.196Z,1.50
2023-03-20T23:30:45.251Z,1.86
2023-03-20T23:33:13.251Z,2.31
2023-03-20T23:35:40.491Z,0.18
2023-03-20T23:38:07.240Z,1.60
2023-03-20T23:40:34.054Z,-0.74
2023-03-20T23:43:00.975Z,-0.16
2023-03-20T23:45:27.770Z,-0.45
2023-03-20T23:47:54.599Z,0.02
2023-03-20T23:50:30.362Z,0.48
2023-03-20T23:53:17.539Z,0.27
2023-03-20T23:55:53.953Z,0.71
2023-03-20T23:58:22.799Z,0.40
